sensor_id;sensor_type;location;lat;lon;timestamp;temperature;humidity
2621;DHT22;1320;48.128;11.592;2022-11-20T00:01:15;7.90;99.90
2621;DHT22;1320;48.128;11.592;2022-11-20T00:03:41;7.90;99.90
2621;DHT22;1320;48.128;11.592;2022-11-20T00:06:10;7.90;99.90
2621;DHT22;1320;48.128;11.592;2022-11-20T00:08:36;8.00;99.90
2621;DHT22;1320;48.128;11.592;2022-11-20T00:11:11;8.00;99.90
2621;DHT22;1320;48.128;11.592;2022-11-20T00:13:37;8.10;99.90
2621;DHT22;1320;48.128;11.592;2022-11-20T00:16:05;8.10;99.90
2621;DHT22;1320;48.128;11.592;2022-11-20T00:18:32;8.10;99.90
2621;DHT22;1320;48.128;11.592;2022-11-20T00:21:06;8.00;99.90
2621;DHT22;1320;48.128;11.592;2022-11-20T00:23:33;8.10;99.90
2621;DHT22;1320;48.128;11.592;2022-11-20T00:26:03;8.10;99.90
2621;DHT22;1320;48.128;11.592;2022-11-20T00:28:29;8.10;99.90
2621;DHT22;1320;48.128;11.592;2022-11-20T00:31:07;8.10;99.90
2621;DHT22;1320;48.128;11.592;2022-11-20T00:33:33;8.10;99.90
2621;DHT22;1320;48.128;11.592;2022-11-20T00:36:04;8.20;99.90
2621;DHT22;1320;48.128;11.592;2022-11-20T00:38:31;8.10;99.90
2621;DHT22;1320;48.128;11.592;2022-11-20T00:40:57;8.10;99.90
2621;DHT22;1320;48.128;11.592;2022-11-20T00:43:24;8.10;99.90
2621;DHT22;1320;48.128;11.592;2022-11-20T00:45:50;8.10;99.90
2621;DHT22;1320;48.128;11.592;2022-11-20T00:48:16;8.10;99.90
2621;DHT22;1320;48.128;11.592;2022-11-20T00:50:41;8.10;99.90
2621;DHT22;1320;48.128;11.592;2022-11-20T00:53:07;8.10;99.90
2621;DHT22;1320;48.128;11.592;2022-11-20T00:55:33;8.00;99.90
2621;DHT22;1320;48.128;11.592;2022-11-20T00:57:58;8.00;99.90
2621;DHT22;1320;48.128;11.592;2022-11-20T01:00:24;8.00;99.90
2621;DHT22;1320;48.128;11.592;2022-11-20T01:02:49;8.00;99.90
2621;DHT22;1320;48.128;11.592;2022-11-20T01:05:15;8.00;99.90
2621;DHT22;1320;48.128;11.592;2022-11-20T01:07:41;7.90;99.90
2621;DHT22;1320;48.128;11.592;2022-11-20T01:10:07;7.90;99.90
2621;DHT22;1320;48.128;11.592;2022-11-20T01:12:32;7.90;99.90
2621;DHT22;1320;48.128;11.592;2022-11-20T01:14:58;7.90;99.90
2621;DHT22;1320;48.128;11.592;2022-11-20T01:17:24;7.90;99.90
2621;DHT22;1320;48.128;11.592;2022-11-20T01:19:50;7.90;99.90
2621;DHT22;1320;48.128;11.592;2022-11-20T01:22:16;7.80;99.90
2621;DHT22;1320;48.128;11.592;2022-11-20T01:24:42;7.80;99.90
2621;DHT22;1320;48.128;11.592;2022-11-20T01:27:07;7.90;99.90
2621;DHT22;1320;48.128;11.592;2022-11-20T01:29:33;7.90;99.90
2621;DHT22;1320;48.128;11.592;2022-11-20T01:31:58;7.90;99.90
2621;DHT22;1320;48.128;11.592;2022-11-20T01:34:24;7.90;99.90
2621;DHT22;1320;48.128;11.592;2022-11-20T01:36:51;7.90;99.90
2621;DHT22;1320;48.128;11.592;2022-11-20T01:39:20;8.00;99.90
2621;DHT22;1320;48.128;11.592;2022-11-20T01:41:47;8.00;99.90
2621;DHT22;1320;48.128;11.592;2022-11-20T01:44:58;8.00;99.90
2621;DHT22;1320;48.128;11.592;2022-11-20T01:47:29;7.90;99.90
2621;DHT22;1320;48.128;11.592;2022-11-20T01:50:22;8.00;99.90
2621;DHT22;1320;48.128;11.592;2022-11-20T01:52:52;8.10;99.90
2621;DHT22;1320;48.128;11.592;2022-11-20T01:55:23;8.10;99.90
2621;DHT22;1320;48.128;11.592;2022-11-20T01:57:51;8.10;99.90
2621;DHT22;1320;48.128;11.592;2022-11-20T02:00:19;8.10;99.90
2621;DHT22;1320;48.128;11.592;2022-11-20T02:02:53;8.10;99.90
2621;DHT22;1320;48.128;11.592;2022-11-20T02:05:27;8.00;99.90
2621;DHT22;1320;48.128;11.592;2022-11-20T02:07:54;8.00;99.90
2621;DHT22;1320;48.128;11.592;2022-11-20T02:10:21;8.00;99.90
2621;DHT22;1320;48.128;11.592;2022-11-20T02:12:47;8.00;99.90
2621;DHT22;1320;48.128;11.592;2022-11-20T02:15:33;7.90;99.90
2621;DHT22;1320;48.128;11.592;2022-11-20T02:17:59;7.90;99.90
2621;DHT22;1320;48.128;11.592;2022-11-20T02:20:25;7.80;99.90
2621;DHT22;1320;48.128;11.592;2022-11-20T02:23:02;7.80;99.90
2621;DHT22;1320;48.128;11.592;2022-11-20T02:25:30;7.80;99.90
2621;DHT22;1320;48.128;11.592;2022-11-20T02:27:57;7.90;99.90
2621;DHT22;1320;48.128;11.592;2022-11-20T02:30:23;7.90;99.90
2621;DHT22;1320;48.128;11.592;2022-11-20T02:32:49;7.90;99.90
2621;DHT22;1320;48.128;11.592;2022-11-20T02:37:43;7.80;99.90
2621;DHT22;1320;48.128;11.592;2022-11-20T02:40:10;7.80;99.90
2621;DHT22;1320;48.128;11.592;2022-11-20T02:42:37;7.80;99.90
2621;DHT22;1320;48.128;11.592;2022-11-20T02:45:04;7.80;99.90
2621;DHT22;1320;48.128;11.592;2022-11-20T02:47:30;7.70;99.90
2621;DHT22;1320;48.128;11.592;2022-11-20T02:49:55;7.70;99.90
2621;DHT22;1320;48.128;11.592;2022-11-20T02:52:21;7.70;99.90
2621;DHT22;1320;48.128;11.592;2022-11-20T02:54:47;7.70;99.90
2621;DHT22;1320;48.128;11.592;2022-11-20T02:57:12;7.70;99.90
2621;DHT22;1320;48.128;11.592;2022-11-20T02:59:38;7.70;99.90
2621;DHT22;1320;48.128;11.592;2022-11-20T03:02:03;7.70;99.90
2621;DHT22;1320;48.128;11.592;2022-11-20T03:04:30;7.70;99.90
2621;DHT22;1320;48.128;11.592;2022-11-20T03:06:56;7.70;99.90
2621;DHT22;1320;48.128;11.592;2022-11-20T03:09:21;7.70;99.90
2621;DHT22;1320;48.128;11.592;2022-11-20T03:11:47;7.70;99.90
2621;DHT22;1320;48.128;11.592;2022-11-20T03:14:13;7.70;99.90
2621;DHT22;1320;48.128;11.592;2022-11-20T03:16:39;7.80;99.90
2621;DHT22;1320;48.128;11.592;2022-11-20T03:19:05;7.70;99.90
2621;DHT22;1320;48.128;11.592;2022-11-20T03:21:33;7.70;99.90
2621;DHT22;1320;48.128;11.592;2022-11-20T03:23:59;7.70;99.90
2621;DHT22;1320;48.128;11.592;2022-11-20T03:26:26;7.70;99.90
2621;DHT22;1320;48.128;11.592;2022-11-20T03:28:54;7.60;99.90
2621;DHT22;1320;48.128;11.592;2022-11-20T03:31:23;7.70;99.90
2621;DHT22;1320;48.128;11.592;2022-11-20T03:33:49;7.70;99.90
2621;DHT22;1320;48.128;11.592;2022-11-20T03:36:17;7.70;99.90
2621;DHT22;1320;48.128;11.592;2022-11-20T03:38:43;7.70;99.90
2621;DHT22;1320;48.128;11.592;2022-11-20T03:41:11;7.70;99.90
2621;DHT22;1320;48.128;11.592;2022-11-20T03:43:37;7.70;99.90
2621;DHT22;1320;48.128;11.592;2022-11-20T03:46:04;7.70;99.90
2621;DHT22;1320;48.128;11.592;2022-11-20T03:48:30;7.70;99.90
2621;DHT22;1320;48.128;11.592;2022-11-20T03:51:16;7.80;99.90
2621;DHT22;1320;48.128;11.592;2022-11-20T03:53:43;7.80;99.90
2621;DHT22;1320;48.128;11.592;2022-11-20T03:56:10;7.80;99.90
2621;DHT22;1320;48.128;11.592;2022-11-20T03:58:37;7.80;99.90
2621;DHT22;1320;48.128;11.592;2022-11-20T04:01:12;7.80;99.90
2621;DHT22;1320;48.128;11.592;2022-11-20T04:03:39;7.80;99.90
2621;DHT22;1320;48.128;11.592;2022-11-20T04:06:14;7.80;99.90
2621;DHT22;1320;48.128;11.592;2022-11-20T04:08:40;7.70;99.90
2621;DHT22;1320;48.128;11.592;2022-11-20T04:11:17;7.70;99.90
2621;DHT22;1320;48.128;11.592;2022-11-20T04:13:47;7.70;99.90
2621;DHT22;1320;48.128;11.592;2022-11-20T04:16:13;7.60;99.90
2621;DHT22;1320;48.128;11.592;2022-11-20T04:18:39;7.60;99.90
2621;DHT22;1320;48.128;11.592;2022-11-20T04:21:05;7.60;99.90
2621;DHT22;1320;48.128;11.592;2022-11-20T04:23:31;7.60;99.90
2621;DHT22;1320;48.128;11.592;2022-11-20T04:26:11;7.50;99.90
2621;DHT22;1320;48.128;11.592;2022-11-20T04:28:37;7.60;99.90
2621;DHT22;1320;48.128;11.592;2022-11-20T04:31:14;7.60;99.90
2621;DHT22;1320;48.128;11.592;2022-11-20T04:33:40;7.60;99.90
2621;DHT22;1320;48.128;11.592;2022-11-20T04:36:12;7.70;99.90
2621;DHT22;1320;48.128;11.592;2022-11-20T04:38:38;7.80;99.90
2621;DHT22;1320;48.128;11.592;2022-11-20T04:41:05;7.80;99.90
2621;DHT22;1320;48.128;11.592;2022-11-20T04:43:32;7.70;99.90
2621;DHT22;1320;48.128;11.592;2022-11-20T04:45:58;7.80;99.90
2621;DHT22;1320;48.128;11.592;2022-11-20T04:48:25;7.80;99.90
2621;DHT22;1320;48.128;11.592;2022-11-20T04:50:52;7.70;99.90
2621;DHT22;1320;48.128;11.592;2022-11-20T04:53:18;7.80;99.90
2621;DHT22;1320;48.128;11.592;2022-11-20T04:55:44;7.70;99.90
2621;DHT22;1320;48.128;11.592;2022-11-20T04:58:10;7.70;99.90
2621;DHT22;1320;48.128;11.592;2022-11-20T05:00:36;7.70;99.90
2621;DHT22;1320;48.128;11.592;2022-11-20T05:03:02;7.70;99.90
2621;DHT22;1320;48.128;11.592;2022-11-20T05:05:27;7.70;99.90
2621;DHT22;1320;48.128;11.592;2022-11-20T05:07:55;7.60;99.90
2621;DHT22;1320;48.128;11.592;2022-11-20T05:10:21;7.60;99.90
2621;DHT22;1320;48.128;11.592;2022-11-20T05:12:46;7.60;99.90
2621;DHT22;1320;48.128;11.592;2022-11-20T05:15:12;7.60;99.90
2621;DHT22;1320;48.128;11.592;2022-11-20T05:17:38;7.60;99.90
2621;DHT22;1320;48.128;11.592;2022-11-20T05:20:03;7.60;99.90
2621;DHT22;1320;48.128;11.592;2022-11-20T05:22:29;7.60;99.90
2621;DHT22;1320;48.128;11.592;2022-11-20T05:24:55;7.60;99.90
2621;DHT22;1320;48.128;11.592;2022-11-20T05:27:20;7.60;99.90
2621;DHT22;1320;48.128;11.592;2022-11-20T05:29:46;7.60;99.90
2621;DHT22;1320;48.128;11.592;2022-11-20T05:32:11;7.50;99.90
2621;DHT22;1320;48.128;11.592;2022-11-20T05:34:37;7.50;99.90
2621;DHT22;1320;48.128;11.592;2022-11-20T05:37:03;7.60;99.90
2621;DHT22;1320;48.128;11.592;2022-11-20T05:39:28;7.60;99.90
2621;DHT22;1320;48.128;11.592;2022-11-20T05:41:54;7.60;99.90
2621;DHT22;1320;48.128;11.592;2022-11-20T05:44:38;7.60;99.90
2621;DHT22;1320;48.128;11.592;2022-11-20T05:47:05;7.60;99.90
2621;DHT22;1320;48.128;11.592;2022-11-20T05:49:30;7.60;99.90
2621;DHT22;1320;48.128;11.592;2022-11-20T05:51:56;7.50;99.90
2621;DHT22;1320;48.128;11.592;2022-11-20T05:54:22;7.60;99.90
2621;DHT22;1320;48.128;11.592;2022-11-20T05:56:47;7.60;99.90
2621;DHT22;1320;48.128;11.592;2022-11-20T05:59:13;7.60;99.90
2621;DHT22;1320;48.128;11.592;2022-11-20T06:01:38;7.70;99.90
2621;DHT22;1320;48.128;11.592;2022-11-20T06:04:04;7.70;99.90
2621;DHT22;1320;48.128;11.592;2022-11-20T06:06:30;7.70;99.90
2621;DHT22;1320;48.128;11.592;2022-11-20T06:08:55;7.70;99.90
2621;DHT22;1320;48.128;11.592;2022-11-20T06:11:21;7.70;99.90
2621;DHT22;1320;48.128;11.592;2022-11-20T06:13:47;7.70;99.90
2621;DHT22;1320;48.128;11.592;2022-11-20T06:16:15;7.70;99.90
2621;DHT22;1320;48.128;11.592;2022-11-20T06:18:41;7.70;99.90
2621;DHT22;1320;48.128;11.592;2022-11-20T06:21:09;7.70;99.90
2621;DHT22;1320;48.128;11.592;2022-11-20T06:23:36;7.70;99.90
2621;DHT22;1320;48.128;11.592;2022-11-20T06:26:07;7.80;99.90
2621;DHT22;1320;48.128;11.592;2022-11-20T06:28:33;7.70;99.90
2621;DHT22;1320;48.128;11.592;2022-11-20T06:30:59;7.70;99.90
2621;DHT22;1320;48.128;11.592;2022-11-20T06:33:25;7.70;99.90
2621;DHT22;1320;48.128;11.592;2022-11-20T06:35:51;7.60;99.90
2621;DHT22;1320;48.128;11.592;2022-11-20T06:38:16;7.60;99.90
2621;DHT22;1320;48.128;11.592;2022-11-20T06:40:43;7.60;99.90
2621;DHT22;1320;48.128;11.592;2022-11-20T06:43:09;7.60;99.90
2621;DHT22;1320;48.128;11.592;2022-11-20T06:45:36;7.50;99.90
2621;DHT22;1320;48.128;11.592;2022-11-20T06:48:02;7.50;99.90
2621;DHT22;1320;48.128;11.592;2022-11-20T06:50:28;7.50;99.90
2621;DHT22;1320;48.128;11.592;2022-11-20T06:52:53;7.50;99.90
2621;DHT22;1320;48.128;11.592;2022-11-20T06:55:19;7.50;99.90
2621;DHT22;1320;48.128;11.592;2022-11-20T06:57:45;7.50;99.90
2621;DHT22;1320;48.128;11.592;2022-11-20T07:00:11;7.50;99.90
2621;DHT22;1320;48.128;11.592;2022-11-20T07:02:37;7.50;99.90
2621;DHT22;1320;48.128;11.592;2022-11-20T07:05:03;7.50;99.90
2621;DHT22;1320;48.128;11.592;2022-11-20T07:07:29;7.50;99.90
2621;DHT22;1320;48.128;11.592;2022-11-20T07:09:54;7.60;99.90
2621;DHT22;1320;48.128;11.592;2022-11-20T07:12:20;7.60;99.90
2621;DHT22;1320;48.128;11.592;2022-11-20T07:14:46;7.70;99.90
2621;DHT22;1320;48.128;11.592;2022-11-20T07:17:12;7.70;99.90
2621;DHT22;1320;48.128;11.592;2022-11-20T07:19:37;7.80;99.90
2621;DHT22;1320;48.128;11.592;2022-11-20T07:22:04;7.80;99.90
2621;DHT22;1320;48.128;11.592;2022-11-20T07:24:29;7.70;99.90
2621;DHT22;1320;48.128;11.592;2022-11-20T07:26:55;7.70;99.90
2621;DHT22;1320;48.128;11.592;2022-11-20T07:29:21;7.70;99.90
2621;DHT22;1320;48.128;11.592;2022-11-20T07:31:46;7.80;99.90
2621;DHT22;1320;48.128;11.592;2022-11-20T07:34:12;7.80;99.90
2621;DHT22;1320;48.128;11.592;2022-11-20T07:36:37;7.80;99.90
2621;DHT22;1320;48.128;11.592;2022-11-20T07:39:04;7.80;99.90
2621;DHT22;1320;48.128;11.592;2022-11-20T07:41:29;7.80;99.90
2621;DHT22;1320;48.128;11.592;2022-11-20T07:43:55;7.80;99.90
2621;DHT22;1320;48.128;11.592;2022-11-20T07:46:21;7.80;99.90
2621;DHT22;1320;48.128;11.592;2022-11-20T07:48:46;7.80;99.90
2621;DHT22;1320;48.128;11.592;2022-11-20T07:51:12;7.80;99.90
2621;DHT22;1320;48.128;11.592;2022-11-20T07:53:39;7.70;99.90
2621;DHT22;1320;48.128;11.592;2022-11-20T07:56:05;7.70;99.90
2621;DHT22;1320;48.128;11.592;2022-11-20T07:58:31;7.80;99.90
2621;DHT22;1320;48.128;11.592;2022-11-20T08:01:05;7.80;99.90
2621;DHT22;1320;48.128;11.592;2022-11-20T08:03:31;7.80;99.90
2621;DHT22;1320;48.128;11.592;2022-11-20T08:06:01;7.70;99.90
2621;DHT22;1320;48.128;11.592;2022-11-20T08:08:27;7.70;99.90
2621;DHT22;1320;48.128;11.592;2022-11-20T08:10:53;7.70;99.90
2621;DHT22;1320;48.128;11.592;2022-11-20T08:13:38;7.70;99.90
2621;DHT22;1320;48.128;11.592;2022-11-20T08:16:23;7.80;99.90
2621;DHT22;1320;48.128;11.592;2022-11-20T08:18:48;7.80;99.90
2621;DHT22;1320;48.128;11.592;2022-11-20T08:21:15;7.80;99.90
2621;DHT22;1320;48.128;11.592;2022-11-20T08:23:40;7.90;99.90
2621;DHT22;1320;48.128;11.592;2022-11-20T08:26:06;7.90;99.90
2621;DHT22;1320;48.128;11.592;2022-11-20T08:28:32;8.00;99.90
2621;DHT22;1320;48.128;11.592;2022-11-20T08:30:59;8.00;99.90
2621;DHT22;1320;48.128;11.592;2022-11-20T08:33:25;8.00;99.90
2621;DHT22;1320;48.128;11.592;2022-11-20T08:35:50;8.00;99.90
2621;DHT22;1320;48.128;11.592;2022-11-20T08:38:16;7.90;99.90
2621;DHT22;1320;48.128;11.592;2022-11-20T08:40:42;8.00;99.90
2621;DHT22;1320;48.128;11.592;2022-11-20T08:43:27;8.00;99.90
2621;DHT22;1320;48.128;11.592;2022-11-20T08:45:53;8.10;99.90
2621;DHT22;1320;48.128;11.592;2022-11-20T08:48:21;8.10;99.90
2621;DHT22;1320;48.128;11.592;2022-11-20T08:50:46;8.10;99.90
2621;DHT22;1320;48.128;11.592;2022-11-20T08:53:12;8.20;99.90
2621;DHT22;1320;48.128;11.592;2022-11-20T08:55:38;8.30;99.90
2621;DHT22;1320;48.128;11.592;2022-11-20T08:58:08;8.30;99.90
2621;DHT22;1320;48.128;11.592;2022-11-20T09:00:34;8.40;99.90
2621;DHT22;1320;48.128;11.592;2022-11-20T09:03:00;8.40;99.90
2621;DHT22;1320;48.128;11.592;2022-11-20T09:05:26;8.50;99.90
2621;DHT22;1320;48.128;11.592;2022-11-20T09:07:56;8.50;99.90
2621;DHT22;1320;48.128;11.592;2022-11-20T09:10:21;8.60;99.90
2621;DHT22;1320;48.128;11.592;2022-11-20T09:12:53;8.60;99.90
2621;DHT22;1320;48.128;11.592;2022-11-20T09:15:20;8.60;99.90
2621;DHT22;1320;48.128;11.592;2022-11-20T09:17:57;8.70;99.90
2621;DHT22;1320;48.128;11.592;2022-11-20T09:20:24;8.70;99.90
2621;DHT22;1320;48.128;11.592;2022-11-20T09:22:50;8.70;99.90
2621;DHT22;1320;48.128;11.592;2022-11-20T09:25:16;8.70;99.90
2621;DHT22;1320;48.128;11.592;2022-11-20T09:27:42;8.80;99.90
2621;DHT22;1320;48.128;11.592;2022-11-20T09:30:09;8.80;99.90
2621;DHT22;1320;48.128;11.592;2022-11-20T09:32:35;8.80;99.90
2621;DHT22;1320;48.128;11.592;2022-11-20T09:35:01;8.90;99.90
2621;DHT22;1320;48.128;11.592;2022-11-20T09:37:27;8.80;99.90
2621;DHT22;1320;48.128;11.592;2022-11-20T09:39:53;8.80;99.90
2621;DHT22;1320;48.128;11.592;2022-11-20T09:45:19;9.00;99.90
2621;DHT22;1320;48.128;11.592;2022-11-20T09:50:36;9.00;99.90
2621;DHT22;1320;48.128;11.592;2022-11-20T09:55:51;9.00;99.90
2621;DHT22;1320;48.128;11.592;2022-11-20T09:58:35;9.10;99.90
2621;DHT22;1320;48.128;11.592;2022-11-20T10:01:16;9.20;99.90
2621;DHT22;1320;48.128;11.592;2022-11-20T10:06:17;9.30;99.90
2621;DHT22;1320;48.128;11.592;2022-11-20T10:08:50;9.40;99.90
2621;DHT22;1320;48.128;11.592;2022-11-20T10:11:34;9.60;99.90
2621;DHT22;1320;48.128;11.592;2022-11-20T10:17:00;9.80;99.90
2621;DHT22;1320;48.128;11.592;2022-11-20T10:24:52;10.30;99.90
2621;DHT22;1320;48.128;11.592;2022-11-20T10:30:08;10.40;99.90
2621;DHT22;1320;48.128;11.592;2022-11-20T10:32:46;10.60;99.90
2621;DHT22;1320;48.128;11.592;2022-11-20T10:37:44;11.00;99.90
2621;DHT22;1320;48.128;11.592;2022-11-20T10:40:31;11.10;99.90
2621;DHT22;1320;48.128;11.592;2022-11-20T10:43:04;11.10;99.90
2621;DHT22;1320;48.128;11.592;2022-11-20T10:48:24;10.80;99.90
2621;DHT22;1320;48.128;11.592;2022-11-20T10:53:33;10.60;99.90
2621;DHT22;1320;48.128;11.592;2022-11-20T11:01:42;10.80;99.90
2621;DHT22;1320;48.128;11.592;2022-11-20T11:06:56;10.70;99.90
2621;DHT22;1320;48.128;11.592;2022-11-20T11:09:39;10.60;99.90
2621;DHT22;1320;48.128;11.592;2022-11-20T11:12:08;10.50;99.90
2621;DHT22;1320;48.128;11.592;2022-11-20T11:14:46;10.40;99.90
2621;DHT22;1320;48.128;11.592;2022-11-20T11:17:45;10.40;99.90
2621;DHT22;1320;48.128;11.592;2022-11-20T11:20:17;10.30;99.90
2621;DHT22;1320;48.128;11.592;2022-11-20T11:25:36;10.20;99.90
2621;DHT22;1320;48.128;11.592;2022-11-20T11:28:20;10.20;99.90
2621;DHT22;1320;48.128;11.592;2022-11-20T11:30:46;10.20;99.90
2621;DHT22;1320;48.128;11.592;2022-11-20T11:33:29;10.10;99.90
2621;DHT22;1320;48.128;11.592;2022-11-20T11:35:55;10.10;99.90
2621;DHT22;1320;48.128;11.592;2022-11-20T11:38:34;10.10;99.90
2621;DHT22;1320;48.128;11.592;2022-11-20T11:41:01;10.10;99.90
2621;DHT22;1320;48.128;11.592;2022-11-20T11:43:33;10.00;99.90
2621;DHT22;1320;48.128;11.592;2022-11-20T11:51:31;10.20;99.90
2621;DHT22;1320;48.128;11.592;2022-11-20T11:53:58;10.20;99.90
2621;DHT22;1320;48.128;11.592;2022-11-20T11:56:25;10.40;99.90
2621;DHT22;1320;48.128;11.592;2022-11-20T11:58:52;10.50;99.90
2621;DHT22;1320;48.128;11.592;2022-11-20T12:02:27;10.60;99.90
2621;DHT22;1320;48.128;11.592;2022-11-20T12:07:07;10.60;99.90
2621;DHT22;1320;48.128;11.592;2022-11-20T12:09:43;10.50;99.90
2621;DHT22;1320;48.128;11.592;2022-11-20T12:12:20;10.50;99.90
2621;DHT22;1320;48.128;11.592;2022-11-20T12:14:47;10.30;99.90
2621;DHT22;1320;48.128;11.592;2022-11-20T12:17:15;10.20;99.90
2621;DHT22;1320;48.128;11.592;2022-11-20T12:19:41;10.10;99.90
2621;DHT22;1320;48.128;11.592;2022-11-20T12:30:15;9.60;99.90
2621;DHT22;1320;48.128;11.592;2022-11-20T12:47:14;9.10;99.90
2621;DHT22;1320;48.128;11.592;2022-11-20T12:55:28;9.10;99.90
2621;DHT22;1320;48.128;11.592;2022-11-20T13:07:05;8.90;99.90
2621;DHT22;1320;48.128;11.592;2022-11-20T13:09:34;8.90;99.90
2621;DHT22;1320;48.128;11.592;2022-11-20T13:12:54;8.90;99.90
2621;DHT22;1320;48.128;11.592;2022-11-20T13:17:59;8.70;99.90
2621;DHT22;1320;48.128;11.592;2022-11-20T13:20:25;8.70;99.90
2621;DHT22;1320;48.128;11.592;2022-11-20T13:22:53;8.70;99.90
2621;DHT22;1320;48.128;11.592;2022-11-20T13:25:32;8.70;99.90
2621;DHT22;1320;48.128;11.592;2022-11-20T13:28:45;8.60;99.90
2621;DHT22;1320;48.128;11.592;2022-11-20T13:30:51;8.60;99.90
2621;DHT22;1320;48.128;11.592;2022-11-20T13:35:58;8.40;99.90
2621;DHT22;1320;48.128;11.592;2022-11-20T13:38:24;8.30;99.90
2621;DHT22;1320;48.128;11.592;2022-11-20T13:40:52;8.30;99.90
2621;DHT22;1320;48.128;11.592;2022-11-20T13:43:22;8.30;99.90
2621;DHT22;1320;48.128;11.592;2022-11-20T13:45:56;8.30;99.90
2621;DHT22;1320;48.128;11.592;2022-11-20T13:48:26;8.30;99.90
2621;DHT22;1320;48.128;11.592;2022-11-20T13:53:57;8.20;99.90
2621;DHT22;1320;48.128;11.592;2022-11-20T14:01:31;8.40;99.90
2621;DHT22;1320;48.128;11.592;2022-11-20T14:03:57;8.50;99.90
2621;DHT22;1320;48.128;11.592;2022-11-20T14:06:32;8.50;99.90
2621;DHT22;1320;48.128;11.592;2022-11-20T14:08:59;8.60;99.90
2621;DHT22;1320;48.128;11.592;2022-11-20T14:11:27;8.60;99.90
2621;DHT22;1320;48.128;11.592;2022-11-20T14:14:10;8.60;99.90
2621;DHT22;1320;48.128;11.592;2022-11-20T14:16:38;8.70;99.90
2621;DHT22;1320;48.128;11.592;2022-11-20T14:21:47;8.70;99.90
2621;DHT22;1320;48.128;11.592;2022-11-20T14:24:13;8.80;99.90
2621;DHT22;1320;48.128;11.592;2022-11-20T14:26:46;8.80;99.90
2621;DHT22;1320;48.128;11.592;2022-11-20T14:29:16;8.90;99.90
2621;DHT22;1320;48.128;11.592;2022-11-20T14:31:44;8.90;99.90
2621;DHT22;1320;48.128;11.592;2022-11-20T14:34:23;9.00;99.90
2621;DHT22;1320;48.128;11.592;2022-11-20T14:36:53;9.00;99.90
2621;DHT22;1320;48.128;11.592;2022-11-20T14:39:22;8.90;99.90
2621;DHT22;1320;48.128;11.592;2022-11-20T14:41:52;8.90;99.90
2621;DHT22;1320;48.128;11.592;2022-11-20T14:44:18;8.90;99.90
2621;DHT22;1320;48.128;11.592;2022-11-20T14:46:45;8.90;99.90
2621;DHT22;1320;48.128;11.592;2022-11-20T14:49:11;8.90;99.90
2621;DHT22;1320;48.128;11.592;2022-11-20T14:51:38;8.90;99.90
2621;DHT22;1320;48.128;11.592;2022-11-20T14:54:19;8.90;99.90
2621;DHT22;1320;48.128;11.592;2022-11-20T14:57:00;8.90;99.90
2621;DHT22;1320;48.128;11.592;2022-11-20T14:59:31;8.90;99.90
2621;DHT22;1320;48.128;11.592;2022-11-20T15:02:06;8.90;99.90
2621;DHT22;1320;48.128;11.592;2022-11-20T15:04:34;8.90;99.90
2621;DHT22;1320;48.128;11.592;2022-11-20T15:07:09;8.80;99.90
2621;DHT22;1320;48.128;11.592;2022-11-20T15:09:35;8.80;99.90
2621;DHT22;1320;48.128;11.592;2022-11-20T15:12:03;8.80;99.90
2621;DHT22;1320;48.128;11.592;2022-11-20T15:14:30;8.80;99.90
2621;DHT22;1320;48.128;11.592;2022-11-20T15:16:59;8.80;99.90
2621;DHT22;1320;48.128;11.592;2022-11-20T15:19:25;8.80;99.90
2621;DHT22;1320;48.128;11.592;2022-11-20T15:21:52;8.80;99.90
2621;DHT22;1320;48.128;11.592;2022-11-20T15:24:18;8.70;99.90
2621;DHT22;1320;48.128;11.592;2022-11-20T15:26:44;8.70;99.90
2621;DHT22;1320;48.128;11.592;2022-11-20T15:29:12;8.70;99.90
2621;DHT22;1320;48.128;11.592;2022-11-20T15:31:39;8.70;99.90
2621;DHT22;1320;48.128;11.592;2022-11-20T15:34:14;8.60;99.90
2621;DHT22;1320;48.128;11.592;2022-11-20T15:36:41;8.60;99.90
2621;DHT22;1320;48.128;11.592;2022-11-20T15:39:08;8.60;99.90
2621;DHT22;1320;48.128;11.592;2022-11-20T15:41:35;8.60;99.90
2621;DHT22;1320;48.128;11.592;2022-11-20T15:44:01;8.60;99.90
2621;DHT22;1320;48.128;11.592;2022-11-20T15:46:29;8.60;99.90
2621;DHT22;1320;48.128;11.592;2022-11-20T15:48:56;8.60;99.90
2621;DHT22;1320;48.128;11.592;2022-11-20T15:51:34;8.50;99.90
2621;DHT22;1320;48.128;11.592;2022-11-20T15:54:05;8.50;99.90
2621;DHT22;1320;48.128;11.592;2022-11-20T15:56:34;8.50;99.90
2621;DHT22;1320;48.128;11.592;2022-11-20T15:59:00;8.50;99.90
2621;DHT22;1320;48.128;11.592;2022-11-20T16:01:25;8.40;99.90
2621;DHT22;1320;48.128;11.592;2022-11-20T16:03:51;8.40;99.90
2621;DHT22;1320;48.128;11.592;2022-11-20T16:06:17;8.40;99.90
2621;DHT22;1320;48.128;11.592;2022-11-20T16:08:43;8.30;99.90
2621;DHT22;1320;48.128;11.592;2022-11-20T16:11:12;8.20;99.90
2621;DHT22;1320;48.128;11.592;2022-11-20T16:13:38;8.20;99.90
2621;DHT22;1320;48.128;11.592;2022-11-20T16:16:25;8.20;99.90
2621;DHT22;1320;48.128;11.592;2022-11-20T16:18:54;8.20;99.90
2621;DHT22;1320;48.128;11.592;2022-11-20T16:21:20;8.20;99.90
2621;DHT22;1320;48.128;11.592;2022-11-20T16:23:46;8.10;99.90
2621;DHT22;1320;48.128;11.592;2022-11-20T16:26:16;8.10;99.90
2621;DHT22;1320;48.128;11.592;2022-11-20T16:28:46;8.10;99.90
2621;DHT22;1320;48.128;11.592;2022-11-20T16:31:16;8.00;99.90
2621;DHT22;1320;48.128;11.592;2022-11-20T16:33:48;8.00;99.90
2621;DHT22;1320;48.128;11.592;2022-11-20T16:36:20;8.00;99.90
2621;DHT22;1320;48.128;11.592;2022-11-20T16:38:59;7.90;99.90
2621;DHT22;1320;48.128;11.592;2022-11-20T16:41:30;7.90;99.90
2621;DHT22;1320;48.128;11.592;2022-11-20T16:43:57;7.90;99.90
2621;DHT22;1320;48.128;11.592;2022-11-20T16:46:25;7.90;99.90
2621;DHT22;1320;48.128;11.592;2022-11-20T16:48:54;7.80;99.90
2621;DHT22;1320;48.128;11.592;2022-11-20T16:51:20;7.80;99.90
2621;DHT22;1320;48.128;11.592;2022-11-20T16:53:46;7.80;99.90
2621;DHT22;1320;48.128;11.592;2022-11-20T16:56:13;7.70;99.90
2621;DHT22;1320;48.128;11.592;2022-11-20T16:58:42;7.70;99.90
2621;DHT22;1320;48.128;11.592;2022-11-20T17:01:09;7.70;99.90
2621;DHT22;1320;48.128;11.592;2022-11-20T17:03:39;7.70;99.90
2621;DHT22;1320;48.128;11.592;2022-11-20T17:06:16;7.70;99.90
2621;DHT22;1320;48.128;11.592;2022-11-20T17:08:42;7.70;99.90
2621;DHT22;1320;48.128;11.592;2022-11-20T17:11:13;7.70;99.90
2621;DHT22;1320;48.128;11.592;2022-11-20T17:13:39;7.70;99.90
2621;DHT22;1320;48.128;11.592;2022-11-20T17:16:08;7.60;99.90
2621;DHT22;1320;48.128;11.592;2022-11-20T17:18:34;7.60;99.90
2621;DHT22;1320;48.128;11.592;2022-11-20T17:21:00;7.60;99.90
2621;DHT22;1320;48.128;11.592;2022-11-20T17:23:37;7.50;99.90
2621;DHT22;1320;48.128;11.592;2022-11-20T17:26:04;7.50;99.90
2621;DHT22;1320;48.128;11.592;2022-11-20T17:28:31;7.40;99.90
2621;DHT22;1320;48.128;11.592;2022-11-20T17:33:26;7.40;99.90
2621;DHT22;1320;48.128;11.592;2022-11-20T17:35:51;7.40;99.90
2621;DHT22;1320;48.128;11.592;2022-11-20T17:38:17;7.40;99.90
2621;DHT22;1320;48.128;11.592;2022-11-20T17:40:43;7.40;99.90
2621;DHT22;1320;48.128;11.592;2022-11-20T17:43:08;7.40;99.90
2621;DHT22;1320;48.128;11.592;2022-11-20T17:45:37;7.40;99.90
2621;DHT22;1320;48.128;11.592;2022-11-20T17:48:03;7.40;99.90
2621;DHT22;1320;48.128;11.592;2022-11-20T17:50:29;7.50;99.90
2621;DHT22;1320;48.128;11.592;2022-11-20T17:52:54;7.50;99.90
2621;DHT22;1320;48.128;11.592;2022-11-20T17:55:20;7.40;99.90
2621;DHT22;1320;48.128;11.592;2022-11-20T17:57:45;7.40;99.90